sensor_id;sensor_type;location;lat;lon;timestamp;temperature;humidity
41080;DHT22;26826;50.718;7.114;2022-12-07T00:06:51;4.50;99.90
41080;DHT22;26826;50.718;7.114;2022-12-07T00:16:52;4.50;99.90
41080;DHT22;26826;50.718;7.114;2022-12-07T00:26:53;4.60;99.90
41080;DHT22;26826;50.718;7.114;2022-12-07T00:36:54;4.70;99.90
41080;DHT22;26826;50.718;7.114;2022-12-07T00:46:54;4.70;99.90
41080;DHT22;26826;50.718;7.114;2022-12-07T00:56:56;4.70;99.90
41080;DHT22;26826;50.718;7.114;2022-12-07T01:06:56;4.80;99.90
41080;DHT22;26826;50.718;7.114;2022-12-07T01:16:57;4.90;99.90
41080;DHT22;26826;50.718;7.114;2022-12-07T01:26:57;4.80;99.90
41080;DHT22;26826;50.718;7.114;2022-12-07T01:36:58;4.90;99.90
41080;DHT22;26826;50.718;7.114;2022-12-07T01:47:03;4.90;99.90
41080;DHT22;26826;50.718;7.114;2022-12-07T01:57:04;5.00;99.90
41080;DHT22;26826;50.718;7.114;2022-12-07T02:07:06;5.00;99.90
41080;DHT22;26826;50.718;7.114;2022-12-07T02:17:24;4.90;99.90
41080;DHT22;26826;50.718;7.114;2022-12-07T02:27:39;4.90;99.90
41080;DHT22;26826;50.718;7.114;2022-12-07T02:37:58;5.00;99.90
41080;DHT22;26826;50.718;7.114;2022-12-07T02:48:02;4.90;99.90
41080;DHT22;26826;50.718;7.114;2022-12-07T02:58:28;5.00;99.90
41080;DHT22;26826;50.718;7.114;2022-12-07T03:08:44;5.00;99.90
41080;DHT22;26826;50.718;7.114;2022-12-07T03:19:00;5.00;99.90
41080;DHT22;26826;50.718;7.114;2022-12-07T03:29:12;5.00;99.90
41080;DHT22;26826;50.718;7.114;2022-12-07T03:39:27;5.00;99.90
41080;DHT22;26826;50.718;7.114;2022-12-07T03:59:48;5.00;99.90
41080;DHT22;26826;50.718;7.114;2022-12-07T04:09:49;5.00;99.90
41080;DHT22;26826;50.718;7.114;2022-12-07T04:19:50;4.90;99.90
41080;DHT22;26826;50.718;7.114;2022-12-07T04:29:50;5.00;99.90
41080;DHT22;26826;50.718;7.114;2022-12-07T04:39:51;5.00;99.90
41080;DHT22;26826;50.718;7.114;2022-12-07T04:49:51;4.90;99.90
41080;DHT22;26826;50.718;7.114;2022-12-07T04:59:52;4.90;99.90
41080;DHT22;26826;50.718;7.114;2022-12-07T05:09:52;4.90;99.90
41080;DHT22;26826;50.718;7.114;2022-12-07T05:19:53;4.80;99.90
41080;DHT22;26826;50.718;7.114;2022-12-07T05:29:53;4.90;99.90
41080;DHT22;26826;50.718;7.114;2022-12-07T05:39:54;4.90;99.90
41080;DHT22;26826;50.718;7.114;2022-12-07T05:49:54;4.80;99.90
41080;DHT22;26826;50.718;7.114;2022-12-07T05:59:55;4.80;99.90
41080;DHT22;26826;50.718;7.114;2022-12-07T06:09:55;4.80;99.90
41080;DHT22;26826;50.718;7.114;2022-12-07T06:19:56;4.90;99.90
41080;DHT22;26826;50.718;7.114;2022-12-07T06:29:56;4.90;99.90
41080;DHT22;26826;50.718;7.114;2022-12-07T06:39:57;4.90;99.90
41080;DHT22;26826;50.718;7.114;2022-12-07T06:49:57;4.80;99.90
41080;DHT22;26826;50.718;7.114;2022-12-07T06:59:58;4.60;99.90
41080;DHT22;26826;50.718;7.114;2022-12-07T07:09:58;4.50;99.90
41080;DHT22;26826;50.718;7.114;2022-12-07T07:19:59;4.50;99.90
41080;DHT22;26826;50.718;7.114;2022-12-07T07:29:59;4.40;99.90
41080;DHT22;26826;50.718;7.114;2022-12-07T07:40:00;4.40;99.90
41080;DHT22;26826;50.718;7.114;2022-12-07T07:50:01;4.40;99.90
41080;DHT22;26826;50.718;7.114;2022-12-07T08:00:04;4.50;99.90
41080;DHT22;26826;50.718;7.114;2022-12-07T08:10:07;4.60;99.90
41080;DHT22;26826;50.718;7.114;2022-12-07T08:20:09;4.80;99.90
41080;DHT22;26826;50.718;7.114;2022-12-07T08:30:10;4.80;99.90
41080;DHT22;26826;50.718;7.114;2022-12-07T08:40:11;4.70;99.90
41080;DHT22;26826;50.718;7.114;2022-12-07T08:50:15;4.70;99.90
41080;DHT22;26826;50.718;7.114;2022-12-07T09:00:17;4.80;99.90
41080;DHT22;26826;50.718;7.114;2022-12-07T09:10:18;5.10;99.90
41080;DHT22;26826;50.718;7.114;2022-12-07T09:20:19;5.00;99.90
41080;DHT22;26826;50.718;7.114;2022-12-07T09:41:23;5.40;99.90
41080;DHT22;26826;50.718;7.114;2022-12-07T09:51:24;5.50;99.90
41080;DHT22;26826;50.718;7.114;2022-12-07T10:01:24;5.60;99.90
41080;DHT22;26826;50.718;7.114;2022-12-07T10:11:25;5.80;99.90
41080;DHT22;26826;50.718;7.114;2022-12-07T10:21:26;5.90;99.90
41080;DHT22;26826;50.718;7.114;2022-12-07T10:31:27;6.00;99.90
41080;DHT22;26826;50.718;7.114;2022-12-07T10:41:28;6.50;99.90
41080;DHT22;26826;50.718;7.114;2022-12-07T10:51:52;6.80;99.90
41080;DHT22;26826;50.718;7.114;2022-12-07T11:12:37;6.80;99.90
41080;DHT22;26826;50.718;7.114;2022-12-07T11:43:27;6.60;99.90
41080;DHT22;26826;50.718;7.114;2022-12-07T12:03:37;7.40;99.90
41080;DHT22;26826;50.718;7.114;2022-12-07T12:24:15;7.20;99.90
41080;DHT22;26826;50.718;7.114;2022-12-07T13:05:42;6.40;99.90
41080;DHT22;26826;50.718;7.114;2022-12-07T13:15:51;6.50;99.90
41080;DHT22;26826;50.718;7.114;2022-12-07T13:26:14;6.30;99.90
41080;DHT22;26826;50.718;7.114;2022-12-07T13:36:24;6.20;99.90
41080;DHT22;26826;50.718;7.114;2022-12-07T13:46:48;6.20;99.90
41080;DHT22;26826;50.718;7.114;2022-12-07T13:56:52;6.10;99.90
41080;DHT22;26826;50.718;7.114;2022-12-07T14:06:53;6.20;99.90
41080;DHT22;26826;50.718;7.114;2022-12-07T14:17:16;6.10;99.90
41080;DHT22;26826;50.718;7.114;2022-12-07T14:27:19;5.90;99.90
41080;DHT22;26826;50.718;7.114;2022-12-07T14:37:20;5.80;99.90
41080;DHT22;26826;50.718;7.114;2022-12-07T14:47:21;5.50;99.90
41080;DHT22;26826;50.718;7.114;2022-12-07T14:57:22;5.50;99.90
41080;DHT22;26826;50.718;7.114;2022-12-07T15:07:23;5.60;99.90
41080;DHT22;26826;50.718;7.114;2022-12-07T15:17:24;5.60;99.90
41080;DHT22;26826;50.718;7.114;2022-12-07T15:38:06;5.60;99.90
41080;DHT22;26826;50.718;7.114;2022-12-07T15:48:06;5.60;99.90
41080;DHT22;26826;50.718;7.114;2022-12-07T15:58:07;5.50;99.90
41080;DHT22;26826;50.718;7.114;2022-12-07T16:08:08;5.50;99.90
41080;DHT22;26826;50.718;7.114;2022-12-07T16:18:08;5.60;99.90
41080;DHT22;26826;50.718;7.114;2022-12-07T16:28:09;5.40;99.90
41080;DHT22;26826;50.718;7.114;2022-12-07T16:38:10;5.50;99.90
41080;DHT22;26826;50.718;7.114;2022-12-07T16:48:10;5.50;99.90
41080;DHT22;26826;50.718;7.114;2022-12-07T16:58:12;5.50;99.90
41080;DHT22;26826;50.718;7.114;2022-12-07T17:08:13;5.50;99.90
41080;DHT22;26826;50.718;7.114;2022-12-07T17:18:14;5.20;99.90
41080;DHT22;26826;50.718;7.114;2022-12-07T17:28:14;5.10;99.90
41080;DHT22;26826;50.718;7.114;2022-12-07T17:38:15;4.90;99.90
41080;DHT22;26826;50.718;7.114;2022-12-07T17:48:15;5.30;99.90
41080;DHT22;26826;50.718;7.114;2022-12-07T17:58:16;5.10;99.90
41080;DHT22;26826;50.718;7.114;2022-12-07T18:08:16;5.00;99.90
41080;DHT22;26826;50.718;7.114;2022-12-07T18:18:17;5.00;99.90
41080;DHT22;26826;50.718;7.114;2022-12-07T18:28:17;4.90;99.90
41080;DHT22;26826;50.718;7.114;2022-12-07T18:38:19;4.90;99.90
41080;DHT22;26826;50.718;7.114;2022-12-07T18:48:20;4.80;99.90
41080;DHT22;26826;50.718;7.114;2022-12-07T18:58:21;4.80;99.90
41080;DHT22;26826;50.718;7.114;2022-12-07T19:08:23;4.80;99.90
41080;DHT22;26826;50.718;7.114;2022-12-07T19:18:24;4.70;99.90
41080;DHT22;26826;50.718;7.114;2022-12-07T19:28:24;4.70;99.90
41080;DHT22;26826;50.718;7.114;2022-12-07T19:38:25;4.60;99.90
41080;DHT22;26826;50.718;7.114;2022-12-07T19:48:25;4.70;99.90
41080;DHT22;26826;50.718;7.114;2022-12-07T19:58:26;4.60;99.90
41080;DHT22;26826;50.718;7.114;2022-12-07T20:08:26;4.50;99.90
41080;DHT22;26826;50.718;7.114;2022-12-07T20:18:27;4.60;99.90
41080;DHT22;26826;50.718;7.114;2022-12-07T20:28:27;4.70;99.90
41080;DHT22;26826;50.718;7.114;2022-12-07T20:38:30;4.60;99.90
41080;DHT22;26826;50.718;7.114;2022-12-07T20:48:31;4.50;99.90
41080;DHT22;26826;50.718;7.114;2022-12-07T20:58:32;4.60;99.90
41080;DHT22;26826;50.718;7.114;2022-12-07T21:08:32;4.60;99.90
41080;DHT22;26826;50.718;7.114;2022-12-07T21:18:33;4.60;99.90
41080;DHT22;26826;50.718;7.114;2022-12-07T21:28:33;4.60;99.90
41080;DHT22;26826;50.718;7.114;2022-12-07T21:38:34;4.60;99.90
41080;DHT22;26826;50.718;7.114;2022-12-07T21:48:35;4.60;99.90
41080;DHT22;26826;50.718;7.114;2022-12-07T21:58:35;4.50;99.90
41080;DHT22;26826;50.718;7.114;2022-12-07T22:08:36;4.50;99.90
41080;DHT22;26826;50.718;7.114;2022-12-07T22:18:36;4.40;99.90
41080;DHT22;26826;50.718;7.114;2022-12-07T22:28:37;4.40;99.90
41080;DHT22;26826;50.718;7.114;2022-12-07T22:38:38;4.40;99.90
41080;DHT22;26826;50.718;7.114;2022-12-07T22:48:40;4.40;99.90
41080;DHT22;26826;50.718;7.114;2022-12-07T22:58:40;4.40;99.90
41080;DHT22;26826;50.718;7.114;2022-12-07T23:08:41;4.50;99.90
41080;DHT22;26826;50.718;7.114;2022-12-07T23:18:42;4.30;99.90
41080;DHT22;26826;50.718;7.114;2022-12-07T23:28:42;4.50;99.90
41080;DHT22;26826;50.718;7.114;2022-12-07T23:38:45;4.40;99.90
41080;DHT22;26826;50.718;7.114;2022-12-07T23:48:47;4.40;99.90
41080;DHT22;26826;50.718;7.114;2022-12-07T23:58:49;4.40;99.90
